sensor_id;sensor_type;location;lat;lon;timestamp;P1;durP1;ratioP1;P2;durP2;ratioP2
26435;SDS011;15351;52.408;16.826;2023-10-13T00:06:16;21.50;;;11.90;;
26435;SDS011;15351;52.408;16.826;2023-10-13T00:09:15;21.00;;;11.10;;
26435;SDS011;15351;52.408;16.826;2023-10-13T00:12:08;21.80;;;11.30;;
26435;SDS011;15351;52.408;16.826;2023-10-13T00:15:17;21.50;;;11.90;;
26435;SDS011;15351;52.408;16.826;2023-10-13T00:18:05;20.70;;;12.40;;
26435;SDS011;15351;52.408;16.826;2023-10-13T00:24:18;21.60;;;12.60;;
26435;SDS011;15351;52.408;16.826;2023-10-13T00:27:24;23.20;;;12.90;;
26435;SDS011;15351;52.408;16.826;2023-10-13T00:30:28;22.00;;;12.70;;
26435;SDS011;15351;52.408;16.826;2023-10-13T00:33:37;18.60;;;11.40;;
26435;SDS011;15351;52.408;16.826;2023-10-13T00:36:24;19.50;;;11.80;;
26435;SDS011;15351;52.408;16.826;2023-10-13T00:43:07;19.70;;;12.00;;
26435;SDS011;15351;52.408;16.826;2023-10-13T00:49:08;21.40;;;12.40;;
26435;SDS011;15351;52.408;16.826;2023-10-13T00:52:36;18.40;;;11.40;;
26435;SDS011;15351;52.408;16.826;2023-10-13T00:55:54;18.90;;;11.00;;
26435;SDS011;15351;52.408;16.826;2023-10-13T00:59:08;21.90;;;12.20;;
26435;SDS011;15351;52.408;16.826;2023-10-13T01:02:09;21.40;;;13.20;;
26435;SDS011;15351;52.408;16.826;2023-10-13T01:05:45;21.80;;;12.00;;
26435;SDS011;15351;52.408;16.826;2023-10-13T01:09:20;19.50;;;11.40;;
26435;SDS011;15351;52.408;16.826;2023-10-13T01:12:03;19.50;;;11.50;;
26435;SDS011;15351;52.408;16.826;2023-10-13T01:24:15;18.90;;;11.10;;
26435;SDS011;15351;52.408;16.826;2023-10-13T01:26:57;19.50;;;10.90;;
26435;SDS011;15351;52.408;16.826;2023-10-13T01:29:41;17.70;;;10.80;;
26435;SDS011;15351;52.408;16.826;2023-10-13T01:32:30;19.60;;;11.20;;
26435;SDS011;15351;52.408;16.826;2023-10-13T01:35:20;19.60;;;11.20;;
26435;SDS011;15351;52.408;16.826;2023-10-13T01:38:17;20.10;;;11.20;;
26435;SDS011;15351;52.408;16.826;2023-10-13T01:40:51;19.60;;;11.40;;
26435;SDS011;15351;52.408;16.826;2023-10-13T01:43:36;23.10;;;11.80;;
26435;SDS011;15351;52.408;16.826;2023-10-13T01:46:54;22.70;;;11.90;;
26435;SDS011;15351;52.408;16.826;2023-10-13T01:49:56;20.00;;;12.00;;
26435;SDS011;15351;52.408;16.826;2023-10-13T01:52:37;19.90;;;11.70;;
26435;SDS011;15351;52.408;16.826;2023-10-13T01:56:29;19.40;;;12.50;;
26435;SDS011;15351;52.408;16.826;2023-10-13T01:59:00;22.70;;;13.00;;
26435;SDS011;15351;52.408;16.826;2023-10-13T02:01:52;23.20;;;12.60;;
26435;SDS011;15351;52.408;16.826;2023-10-13T02:07:38;23.90;;;12.50;;
26435;SDS011;15351;52.408;16.826;2023-10-13T02:10:22;22.50;;;13.10;;
26435;SDS011;15351;52.408;16.826;2023-10-13T02:13:25;20.90;;;12.70;;
26435;SDS011;15351;52.408;16.826;2023-10-13T02:16:06;22.30;;;13.10;;
26435;SDS011;15351;52.408;16.826;2023-10-13T02:19:13;20.80;;;12.30;;
26435;SDS011;15351;52.408;16.826;2023-10-13T02:21:47;26.80;;;12.80;;
26435;SDS011;15351;52.408;16.826;2023-10-13T02:24:24;21.60;;;12.50;;
26435;SDS011;15351;52.408;16.826;2023-10-13T02:26:56;22.20;;;12.50;;
26435;SDS011;15351;52.408;16.826;2023-10-13T02:29:41;24.10;;;12.80;;
26435;SDS011;15351;52.408;16.826;2023-10-13T02:35:52;22.10;;;12.90;;
26435;SDS011;15351;52.408;16.826;2023-10-13T02:38:56;22.10;;;13.00;;
26435;SDS011;15351;52.408;16.826;2023-10-13T02:42:08;25.30;;;13.30;;
26435;SDS011;15351;52.408;16.826;2023-10-13T02:44:52;19.80;;;11.90;;
26435;SDS011;15351;52.408;16.826;2023-10-13T02:47:49;21.10;;;12.70;;
26435;SDS011;15351;52.408;16.826;2023-10-13T02:56:47;19.50;;;11.80;;
26435;SDS011;15351;52.408;16.826;2023-10-13T02:59:34;19.40;;;11.40;;
26435;SDS011;15351;52.408;16.826;2023-10-13T03:02:28;18.70;;;11.20;;
26435;SDS011;15351;52.408;16.826;2023-10-13T03:05:01;19.00;;;11.50;;
26435;SDS011;15351;52.408;16.826;2023-10-13T03:07:53;17.40;;;10.70;;
26435;SDS011;15351;52.408;16.826;2023-10-13T03:11:11;17.60;;;11.10;;
26435;SDS011;15351;52.408;16.826;2023-10-13T03:14:01;20.50;;;11.40;;
26435;SDS011;15351;52.408;16.826;2023-10-13T03:16:54;21.00;;;11.20;;
26435;SDS011;15351;52.408;16.826;2023-10-13T03:20:05;18.50;;;10.20;;
26435;SDS011;15351;52.408;16.826;2023-10-13T03:23:05;17.40;;;10.10;;
26435;SDS011;15351;52.408;16.826;2023-10-13T03:26:01;16.00;;;9.90;;
26435;SDS011;15351;52.408;16.826;2023-10-13T03:28:53;15.40;;;10.00;;
26435;SDS011;15351;52.408;16.826;2023-10-13T03:31:22;19.70;;;11.10;;
26435;SDS011;15351;52.408;16.826;2023-10-13T03:34:32;18.80;;;10.80;;
26435;SDS011;15351;52.408;16.826;2023-10-13T03:37:53;17.50;;;10.80;;
26435;SDS011;15351;52.408;16.826;2023-10-13T03:40:24;18.40;;;10.60;;
26435;SDS011;15351;52.408;16.826;2023-10-13T03:52:55;17.60;;;9.70;;
26435;SDS011;15351;52.408;16.826;2023-10-13T03:55:52;17.00;;;9.40;;
26435;SDS011;15351;52.408;16.826;2023-10-13T04:05:08;15.50;;;8.60;;
26435;SDS011;15351;52.408;16.826;2023-10-13T04:07:50;17.70;;;8.50;;
26435;SDS011;15351;52.408;16.826;2023-10-13T04:10:56;15.90;;;7.90;;
26435;SDS011;15351;52.408;16.826;2023-10-13T04:14:01;18.60;;;7.30;;
26435;SDS011;15351;52.408;16.826;2023-10-13T04:21:11;14.10;;;6.60;;
26435;SDS011;15351;52.408;16.826;2023-10-13T04:25:03;16.40;;;7.50;;
26435;SDS011;15351;52.408;16.826;2023-10-13T04:31:51;15.10;;;6.90;;
26435;SDS011;15351;52.408;16.826;2023-10-13T04:45:14;17.10;;;7.10;;
26435;SDS011;15351;52.408;16.826;2023-10-13T04:48:25;18.40;;;7.50;;
26435;SDS011;15351;52.408;16.826;2023-10-13T04:51:12;15.20;;;7.00;;
26435;SDS011;15351;52.408;16.826;2023-10-13T04:54:57;13.40;;;7.00;;
26435;SDS011;15351;52.408;16.826;2023-10-13T04:58:03;14.50;;;7.00;;
26435;SDS011;15351;52.408;16.826;2023-10-13T05:01:17;16.10;;;8.20;;
26435;SDS011;15351;52.408;16.826;2023-10-13T05:04:55;14.90;;;7.40;;
26435;SDS011;15351;52.408;16.826;2023-10-13T05:08:47;17.00;;;8.40;;
26435;SDS011;15351;52.408;16.826;2023-10-13T05:11:49;18.00;;;8.50;;
26435;SDS011;15351;52.408;16.826;2023-10-13T05:15:43;18.40;;;8.80;;
26435;SDS011;15351;52.408;16.826;2023-10-13T05:19:16;17.20;;;9.40;;
26435;SDS011;15351;52.408;16.826;2023-10-13T05:22:22;18.60;;;9.30;;
26435;SDS011;15351;52.408;16.826;2023-10-13T05:25:13;19.90;;;9.60;;
26435;SDS011;15351;52.408;16.826;2023-10-13T05:41:57;16.60;;;9.00;;
26435;SDS011;15351;52.408;16.826;2023-10-13T05:44:54;18.90;;;9.50;;
26435;SDS011;15351;52.408;16.826;2023-10-13T05:48:24;19.50;;;9.60;;
26435;SDS011;15351;52.408;16.826;2023-10-13T05:51:52;19.30;;;9.80;;
26435;SDS011;15351;52.408;16.826;2023-10-13T05:54:48;18.80;;;9.90;;
26435;SDS011;15351;52.408;16.826;2023-10-13T05:57:34;18.90;;;9.90;;
26435;SDS011;15351;52.408;16.826;2023-10-13T06:00:23;19.00;;;9.80;;
26435;SDS011;15351;52.408;16.826;2023-10-13T06:03:37;21.20;;;10.50;;
26435;SDS011;15351;52.408;16.826;2023-10-13T06:06:39;20.30;;;10.40;;
26435;SDS011;15351;52.408;16.826;2023-10-13T06:13:10;26.00;;;11.50;;
26435;SDS011;15351;52.408;16.826;2023-10-13T06:16:19;24.30;;;12.20;;
26435;SDS011;15351;52.408;16.826;2023-10-13T06:19:24;27.60;;;12.30;;
26435;SDS011;15351;52.408;16.826;2023-10-13T06:22:14;27.40;;;12.30;;
26435;SDS011;15351;52.408;16.826;2023-10-13T06:25:13;26.10;;;12.50;;
26435;SDS011;15351;52.408;16.826;2023-10-13T06:28:03;25.80;;;12.30;;
26435;SDS011;15351;52.408;16.826;2023-10-13T06:31:04;24.00;;;12.20;;
26435;SDS011;15351;52.408;16.826;2023-10-13T06:33:49;28.10;;;12.70;;
26435;SDS011;15351;52.408;16.826;2023-10-13T06:36:36;27.70;;;12.50;;
26435;SDS011;15351;52.408;16.826;2023-10-13T06:39:18;30.50;;;13.50;;
26435;SDS011;15351;52.408;16.826;2023-10-13T06:42:11;27.80;;;13.40;;
26435;SDS011;15351;52.408;16.826;2023-10-13T06:44:57;30.40;;;13.30;;
26435;SDS011;15351;52.408;16.826;2023-10-13T06:47:45;27.60;;;13.40;;
26435;SDS011;15351;52.408;16.826;2023-10-13T06:50:22;27.10;;;13.90;;
26435;SDS011;15351;52.408;16.826;2023-10-13T06:53:16;27.70;;;14.20;;
26435;SDS011;15351;52.408;16.826;2023-10-13T06:56:19;28.50;;;14.00;;
26435;SDS011;15351;52.408;16.826;2023-10-13T06:58:55;33.20;;;14.70;;
26435;SDS011;15351;52.408;16.826;2023-10-13T07:01:28;30.20;;;15.00;;
26435;SDS011;15351;52.408;16.826;2023-10-13T07:04:07;28.60;;;14.60;;
26435;SDS011;15351;52.408;16.826;2023-10-13T07:06:51;33.80;;;15.40;;
26435;SDS011;15351;52.408;16.826;2023-10-13T07:09:20;36.90;;;15.40;;
26435;SDS011;15351;52.408;16.826;2023-10-13T07:12:11;30.40;;;15.40;;
26435;SDS011;15351;52.408;16.826;2023-10-13T07:15:05;32.70;;;16.10;;
26435;SDS011;15351;52.408;16.826;2023-10-13T07:17:58;34.10;;;16.00;;
26435;SDS011;15351;52.408;16.826;2023-10-13T07:20:33;37.00;;;17.10;;
26435;SDS011;15351;52.408;16.826;2023-10-13T07:23:45;36.50;;;17.20;;
26435;SDS011;15351;52.408;16.826;2023-10-13T07:26:35;35.70;;;17.60;;
26435;SDS011;15351;52.408;16.826;2023-10-13T07:29:41;32.90;;;16.80;;
26435;SDS011;15351;52.408;16.826;2023-10-13T07:32:41;34.90;;;17.50;;
26435;SDS011;15351;52.408;16.826;2023-10-13T07:35:33;33.90;;;17.30;;
26435;SDS011;15351;52.408;16.826;2023-10-13T07:38:29;33.10;;;19.10;;
26435;SDS011;15351;52.408;16.826;2023-10-13T07:41:05;33.00;;;17.80;;
26435;SDS011;15351;52.408;16.826;2023-10-13T07:43:40;34.90;;;17.30;;
26435;SDS011;15351;52.408;16.826;2023-10-13T07:46:27;32.70;;;17.20;;
26435;SDS011;15351;52.408;16.826;2023-10-13T07:49:31;35.70;;;18.30;;
26435;SDS011;15351;52.408;16.826;2023-10-13T07:52:07;34.80;;;18.30;;
26435;SDS011;15351;52.408;16.826;2023-10-13T07:58:23;34.50;;;16.60;;
26435;SDS011;15351;52.408;16.826;2023-10-13T08:00:57;32.50;;;16.70;;
26435;SDS011;15351;52.408;16.826;2023-10-13T08:03:48;31.70;;;17.40;;
26435;SDS011;15351;52.408;16.826;2023-10-13T08:07:04;32.20;;;16.90;;
26435;SDS011;15351;52.408;16.826;2023-10-13T08:09:59;32.60;;;17.80;;
26435;SDS011;15351;52.408;16.826;2023-10-13T08:12:35;34.20;;;17.30;;
26435;SDS011;15351;52.408;16.826;2023-10-13T08:18:14;33.20;;;17.60;;
26435;SDS011;15351;52.408;16.826;2023-10-13T08:20:57;35.60;;;18.20;;
26435;SDS011;15351;52.408;16.826;2023-10-13T08:29:46;34.20;;;18.00;;
26435;SDS011;15351;52.408;16.826;2023-10-13T08:33:03;32.00;;;18.10;;
26435;SDS011;15351;52.408;16.826;2023-10-13T08:36:16;33.90;;;19.10;;
26435;SDS011;15351;52.408;16.826;2023-10-13T08:39:27;29.50;;;18.50;;
26435;SDS011;15351;52.408;16.826;2023-10-13T08:42:36;34.50;;;19.10;;
26435;SDS011;15351;52.408;16.826;2023-10-13T08:45:46;32.40;;;18.50;;
26435;SDS011;15351;52.408;16.826;2023-10-13T08:48:16;33.00;;;18.50;;
26435;SDS011;15351;52.408;16.826;2023-10-13T08:57:25;29.80;;;17.60;;
26435;SDS011;15351;52.408;16.826;2023-10-13T09:00:01;31.20;;;18.10;;
26435;SDS011;15351;52.408;16.826;2023-10-13T09:03:18;31.10;;;17.30;;
26435;SDS011;15351;52.408;16.826;2023-10-13T09:23:52;27.50;;;16.10;;
26435;SDS011;15351;52.408;16.826;2023-10-13T09:26:53;24.00;;;15.30;;
26435;SDS011;15351;52.408;16.826;2023-10-13T09:29:37;25.40;;;14.80;;
26435;SDS011;15351;52.408;16.826;2023-10-13T09:32:19;22.50;;;13.90;;
26435;SDS011;15351;52.408;16.826;2023-10-13T09:35:01;22.00;;;12.70;;
26435;SDS011;15351;52.408;16.826;2023-10-13T09:37:28;19.80;;;12.70;;
26435;SDS011;15351;52.408;16.826;2023-10-13T09:40:03;18.40;;;11.70;;
26435;SDS011;15351;52.408;16.826;2023-10-13T09:42:33;19.50;;;11.80;;
26435;SDS011;15351;52.408;16.826;2023-10-13T09:45:02;18.60;;;11.70;;
26435;SDS011;15351;52.408;16.826;2023-10-13T09:47:50;17.40;;;11.00;;
26435;SDS011;15351;52.408;16.826;2023-10-13T09:50:40;17.10;;;11.30;;
26435;SDS011;15351;52.408;16.826;2023-10-13T09:56:25;20.50;;;10.90;;
26435;SDS011;15351;52.408;16.826;2023-10-13T09:59:08;14.30;;;10.00;;
26435;SDS011;15351;52.408;16.826;2023-10-13T10:01:42;13.30;;;8.90;;
26435;SDS011;15351;52.408;16.826;2023-10-13T10:04:34;14.00;;;8.80;;
26435;SDS011;15351;52.408;16.826;2023-10-13T10:07:13;16.20;;;9.40;;
26435;SDS011;15351;52.408;16.826;2023-10-13T10:10:10;14.60;;;9.20;;
26435;SDS011;15351;52.408;16.826;2023-10-13T10:12:58;11.90;;;8.40;;
26435;SDS011;15351;52.408;16.826;2023-10-13T10:15:44;14.30;;;7.90;;
26435;SDS011;15351;52.408;16.826;2023-10-13T10:18:22;13.20;;;7.70;;
26435;SDS011;15351;52.408;16.826;2023-10-13T10:21:07;10.60;;;6.90;;
26435;SDS011;15351;52.408;16.826;2023-10-13T10:23:38;9.20;;;6.80;;
26435;SDS011;15351;52.408;16.826;2023-10-13T10:26:31;10.40;;;7.00;;
26435;SDS011;15351;52.408;16.826;2023-10-13T10:29:16;12.00;;;7.90;;
26435;SDS011;15351;52.408;16.826;2023-10-13T10:32:12;11.90;;;7.90;;
26435;SDS011;15351;52.408;16.826;2023-10-13T10:34:50;12.60;;;7.20;;
26435;SDS011;15351;52.408;16.826;2023-10-13T10:37:44;10.60;;;6.90;;
26435;SDS011;15351;52.408;16.826;2023-10-13T10:40:17;11.60;;;7.20;;
26435;SDS011;15351;52.408;16.826;2023-10-13T10:43:19;11.20;;;7.30;;
26435;SDS011;15351;52.408;16.826;2023-10-13T10:48:40;11.30;;;7.20;;
26435;SDS011;15351;52.408;16.826;2023-10-13T10:51:40;11.10;;;7.70;;
26435;SDS011;15351;52.408;16.826;2023-10-13T10:54:28;12.00;;;7.50;;
26435;SDS011;15351;52.408;16.826;2023-10-13T10:57:09;12.10;;;6.80;;
26435;SDS011;15351;52.408;16.826;2023-10-13T11:00:17;11.00;;;7.00;;
26435;SDS011;15351;52.408;16.826;2023-10-13T11:02:59;9.90;;;6.20;;
26435;SDS011;15351;52.408;16.826;2023-10-13T11:05:47;9.70;;;6.80;;
26435;SDS011;15351;52.408;16.826;2023-10-13T11:08:32;9.90;;;7.40;;
26435;SDS011;15351;52.408;16.826;2023-10-13T11:11:07;11.70;;;7.20;;
26435;SDS011;15351;52.408;16.826;2023-10-13T11:13:56;10.80;;;7.20;;
26435;SDS011;15351;52.408;16.826;2023-10-13T11:16:48;11.40;;;6.70;;
26435;SDS011;15351;52.408;16.826;2023-10-13T11:19:35;10.10;;;6.70;;
26435;SDS011;15351;52.408;16.826;2023-10-13T11:22:21;9.70;;;6.10;;
26435;SDS011;15351;52.408;16.826;2023-10-13T11:25:29;13.00;;;6.90;;
26435;SDS011;15351;52.408;16.826;2023-10-13T11:28:17;12.50;;;7.10;;
26435;SDS011;15351;52.408;16.826;2023-10-13T11:30:57;9.40;;;6.50;;
26435;SDS011;15351;52.408;16.826;2023-10-13T11:34:02;9.40;;;6.50;;
26435;SDS011;15351;52.408;16.826;2023-10-13T11:36:38;9.40;;;6.50;;
26435;SDS011;15351;52.408;16.826;2023-10-13T11:39:19;8.20;;;6.30;;
26435;SDS011;15351;52.408;16.826;2023-10-13T11:42:17;11.40;;;7.00;;
26435;SDS011;15351;52.408;16.826;2023-10-13T11:44:47;10.50;;;7.00;;
26435;SDS011;15351;52.408;16.826;2023-10-13T11:47:41;9.90;;;6.60;;
26435;SDS011;15351;52.408;16.826;2023-10-13T11:50:25;9.20;;;6.60;;
26435;SDS011;15351;52.408;16.826;2023-10-13T11:53:10;10.60;;;6.10;;
26435;SDS011;15351;52.408;16.826;2023-10-13T11:55:41;9.90;;;6.20;;
26435;SDS011;15351;52.408;16.826;2023-10-13T11:58:23;8.50;;;5.70;;
26435;SDS011;15351;52.408;16.826;2023-10-13T12:00:57;10.10;;;6.00;;
26435;SDS011;15351;52.408;16.826;2023-10-13T12:03:59;8.30;;;5.90;;
26435;SDS011;15351;52.408;16.826;2023-10-13T12:07:05;8.90;;;5.60;;
26435;SDS011;15351;52.408;16.826;2023-10-13T12:09:43;8.70;;;5.50;;
26435;SDS011;15351;52.408;16.826;2023-10-13T12:12:23;6.70;;;5.20;;
26435;SDS011;15351;52.408;16.826;2023-10-13T12:15:14;7.40;;;5.20;;
26435;SDS011;15351;52.408;16.826;2023-10-13T12:17:51;7.50;;;5.50;;
26435;SDS011;15351;52.408;16.826;2023-10-13T12:20:46;8.40;;;5.50;;
26435;SDS011;15351;52.408;16.826;2023-10-13T12:23:19;7.90;;;5.10;;
26435;SDS011;15351;52.408;16.826;2023-10-13T12:26:08;6.40;;;5.10;;
26435;SDS011;15351;52.408;16.826;2023-10-13T12:28:53;8.40;;;5.00;;
26435;SDS011;15351;52.408;16.826;2023-10-13T12:31:37;8.70;;;5.20;;
26435;SDS011;15351;52.408;16.826;2023-10-13T12:34:38;6.70;;;5.20;;
26435;SDS011;15351;52.408;16.826;2023-10-13T12:40:16;6.60;;;4.80;;
26435;SDS011;15351;52.408;16.826;2023-10-13T12:43:23;6.60;;;4.90;;
26435;SDS011;15351;52.408;16.826;2023-10-13T12:46:20;7.60;;;5.20;;
26435;SDS011;15351;52.408;16.826;2023-10-13T12:49:16;5.90;;;5.00;;
26435;SDS011;15351;52.408;16.826;2023-10-13T12:52:44;7.50;;;5.20;;
26435;SDS011;15351;52.408;16.826;2023-10-13T12:55:20;8.20;;;5.60;;
26435;SDS011;15351;52.408;16.826;2023-10-13T12:57:50;7.70;;;5.20;;
26435;SDS011;15351;52.408;16.826;2023-10-13T13:00:20;7.10;;;5.50;;
26435;SDS011;15351;52.408;16.826;2023-10-13T13:02:50;7.50;;;5.40;;
26435;SDS011;15351;52.408;16.826;2023-10-13T13:05:18;7.30;;;5.40;;
26435;SDS011;15351;52.408;16.826;2023-10-13T13:07:48;8.60;;;5.50;;
26435;SDS011;15351;52.408;16.826;2023-10-13T13:10:21;7.50;;;5.00;;
26435;SDS011;15351;52.408;16.826;2023-10-13T13:13:21;6.90;;;5.60;;
26435;SDS011;15351;52.408;16.826;2023-10-13T13:15:50;7.90;;;5.60;;
26435;SDS011;15351;52.408;16.826;2023-10-13T13:18:21;7.30;;;5.70;;
26435;SDS011;15351;52.408;16.826;2023-10-13T13:21:00;9.30;;;5.60;;
26435;SDS011;15351;52.408;16.826;2023-10-13T13:23:45;11.50;;;5.90;;
26435;SDS011;15351;52.408;16.826;2023-10-13T13:26:21;9.10;;;5.80;;
26435;SDS011;15351;52.408;16.826;2023-10-13T13:29:10;8.70;;;5.80;;
26435;SDS011;15351;52.408;16.826;2023-10-13T13:31:43;8.90;;;6.20;;
26435;SDS011;15351;52.408;16.826;2023-10-13T13:34:10;8.50;;;6.40;;
26435;SDS011;15351;52.408;16.826;2023-10-13T13:36:42;8.50;;;6.70;;
26435;SDS011;15351;52.408;16.826;2023-10-13T13:39:10;8.10;;;6.40;;
26435;SDS011;15351;52.408;16.826;2023-10-13T13:41:46;11.10;;;6.90;;
26435;SDS011;15351;52.408;16.826;2023-10-13T13:44:18;9.00;;;6.50;;
26435;SDS011;15351;52.408;16.826;2023-10-13T13:46:45;9.10;;;6.30;;
26435;SDS011;15351;52.408;16.826;2023-10-13T13:49:12;9.00;;;6.50;;
26435;SDS011;15351;52.408;16.826;2023-10-13T13:51:44;9.60;;;6.70;;
26435;SDS011;15351;52.408;16.826;2023-10-13T13:54:18;8.40;;;6.80;;
26435;SDS011;15351;52.408;16.826;2023-10-13T13:56:46;9.50;;;6.30;;
26435;SDS011;15351;52.408;16.826;2023-10-13T13:59:14;9.50;;;6.20;;
26435;SDS011;15351;52.408;16.826;2023-10-13T14:01:50;6.70;;;5.70;;
26435;SDS011;15351;52.408;16.826;2023-10-13T14:04:19;9.00;;;6.30;;
26435;SDS011;15351;52.408;16.826;2023-10-13T14:07:00;7.40;;;5.70;;
26435;SDS011;15351;52.408;16.826;2023-10-13T14:09:32;10.30;;;6.00;;
26435;SDS011;15351;52.408;16.826;2023-10-13T14:12:10;10.30;;;5.80;;
26435;SDS011;15351;52.408;16.826;2023-10-13T14:15:09;8.80;;;6.10;;
26435;SDS011;15351;52.408;16.826;2023-10-13T14:18:07;8.60;;;5.60;;
26435;SDS011;15351;52.408;16.826;2023-10-13T14:20:45;8.70;;;5.60;;
26435;SDS011;15351;52.408;16.826;2023-10-13T14:23:17;9.20;;;5.70;;
26435;SDS011;15351;52.408;16.826;2023-10-13T14:25:54;10.80;;;6.50;;
26435;SDS011;15351;52.408;16.826;2023-10-13T14:28:21;9.80;;;5.70;;
26435;SDS011;15351;52.408;16.826;2023-10-13T14:30:49;9.10;;;5.80;;
26435;SDS011;15351;52.408;16.826;2023-10-13T14:33:25;8.80;;;5.80;;
26435;SDS011;15351;52.408;16.826;2023-10-13T14:35:57;9.10;;;6.00;;
26435;SDS011;15351;52.408;16.826;2023-10-13T14:38:31;6.40;;;5.40;;
26435;SDS011;15351;52.408;16.826;2023-10-13T14:41:47;7.10;;;5.50;;
26435;SDS011;15351;52.408;16.826;2023-10-13T14:44:26;9.70;;;6.10;;
26435;SDS011;15351;52.408;16.826;2023-10-13T14:46:55;10.00;;;6.20;;
26435;SDS011;15351;52.408;16.826;2023-10-13T14:49:28;8.80;;;6.30;;
26435;SDS011;15351;52.408;16.826;2023-10-13T14:51:59;8.30;;;6.20;;
26435;SDS011;15351;52.408;16.826;2023-10-13T14:54:28;8.70;;;6.40;;
26435;SDS011;15351;52.408;16.826;2023-10-13T14:57:02;9.50;;;6.20;;
26435;SDS011;15351;52.408;16.826;2023-10-13T14:59:31;9.00;;;6.10;;
26435;SDS011;15351;52.408;16.826;2023-10-13T15:02:46;9.60;;;6.30;;
26435;SDS011;15351;52.408;16.826;2023-10-13T15:05:28;9.90;;;6.60;;
26435;SDS011;15351;52.408;16.826;2023-10-13T15:08:05;10.00;;;6.80;;
26435;SDS011;15351;52.408;16.826;2023-10-13T15:10:32;8.60;;;6.20;;
26435;SDS011;15351;52.408;16.826;2023-10-13T15:13:01;9.10;;;6.40;;
26435;SDS011;15351;52.408;16.826;2023-10-13T15:15:28;10.20;;;7.80;;
26435;SDS011;15351;52.408;16.826;2023-10-13T15:18:11;9.00;;;6.40;;
26435;SDS011;15351;52.408;16.826;2023-10-13T15:20:39;7.70;;;5.80;;
26435;SDS011;15351;52.408;16.826;2023-10-13T15:23:22;9.50;;;6.40;;
26435;SDS011;15351;52.408;16.826;2023-10-13T15:25:57;9.90;;;6.40;;
26435;SDS011;15351;52.408;16.826;2023-10-13T15:28:36;9.50;;;6.10;;
26435;SDS011;15351;52.408;16.826;2023-10-13T15:31:50;9.20;;;6.60;;
26435;SDS011;15351;52.408;16.826;2023-10-13T15:34:27;11.10;;;7.20;;
26435;SDS011;15351;52.408;16.826;2023-10-13T15:36:56;11.80;;;6.80;;
26435;SDS011;15351;52.408;16.826;2023-10-13T15:39:43;10.90;;;6.90;;
26435;SDS011;15351;52.408;16.826;2023-10-13T15:42:11;14.30;;;8.20;;
26435;SDS011;15351;52.408;16.826;2023-10-13T15:44:40;9.50;;;6.80;;
26435;SDS011;15351;52.408;16.826;2023-10-13T15:47:29;12.60;;;7.20;;
26435;SDS011;15351;52.408;16.826;2023-10-13T15:50:07;11.20;;;6.30;;
26435;SDS011;15351;52.408;16.826;2023-10-13T15:52:39;11.10;;;7.00;;
26435;SDS011;15351;52.408;16.826;2023-10-13T15:55:16;14.10;;;8.40;;
26435;SDS011;15351;52.408;16.826;2023-10-13T15:58:04;11.00;;;7.30;;
26435;SDS011;15351;52.408;16.826;2023-10-13T16:00:35;13.50;;;8.10;;
26435;SDS011;15351;52.408;16.826;2023-10-13T16:03:03;14.00;;;8.40;;
26435;SDS011;15351;52.408;16.826;2023-10-13T16:06:05;12.80;;;7.40;;
26435;SDS011;15351;52.408;16.826;2023-10-13T16:08:58;11.40;;;7.10;;
26435;SDS011;15351;52.408;16.826;2023-10-13T16:11:55;12.80;;;7.10;;
26435;SDS011;15351;52.408;16.826;2023-10-13T16:14:25;12.40;;;7.50;;
26435;SDS011;15351;52.408;16.826;2023-10-13T16:16:57;14.20;;;7.60;;
26435;SDS011;15351;52.408;16.826;2023-10-13T16:19:44;11.60;;;7.40;;
26435;SDS011;15351;52.408;16.826;2023-10-13T16:22:13;14.60;;;7.60;;
26435;SDS011;15351;52.408;16.826;2023-10-13T16:24:42;13.00;;;7.30;;
26435;SDS011;15351;52.408;16.826;2023-10-13T16:30:44;12.90;;;7.50;;
26435;SDS011;15351;52.408;16.826;2023-10-13T16:33:23;14.40;;;7.40;;
26435;SDS011;15351;52.408;16.826;2023-10-13T16:36:06;11.70;;;7.50;;
26435;SDS011;15351;52.408;16.826;2023-10-13T16:38:37;12.40;;;7.60;;
26435;SDS011;15351;52.408;16.826;2023-10-13T16:41:04;15.10;;;7.30;;
26435;SDS011;15351;52.408;16.826;2023-10-13T16:43:42;16.20;;;7.80;;
26435;SDS011;15351;52.408;16.826;2023-10-13T16:48:51;12.10;;;6.60;;
26435;SDS011;15351;52.408;16.826;2023-10-13T16:51:24;13.60;;;7.00;;
26435;SDS011;15351;52.408;16.826;2023-10-13T16:53:53;14.00;;;7.90;;
26435;SDS011;15351;52.408;16.826;2023-10-13T16:56:45;10.60;;;6.80;;
26435;SDS011;15351;52.408;16.826;2023-10-13T16:59:24;11.50;;;6.50;;
26435;SDS011;15351;52.408;16.826;2023-10-13T17:02:16;12.00;;;6.30;;
26435;SDS011;15351;52.408;16.826;2023-10-13T17:04:51;14.40;;;6.80;;
26435;SDS011;15351;52.408;16.826;2023-10-13T17:07:31;13.70;;;6.90;;
26435;SDS011;15351;52.408;16.826;2023-10-13T17:10:04;12.90;;;6.80;;
26435;SDS011;15351;52.408;16.826;2023-10-13T17:12:31;10.70;;;6.50;;
26435;SDS011;15351;52.408;16.826;2023-10-13T17:14:59;15.10;;;7.70;;
26435;SDS011;15351;52.408;16.826;2023-10-13T17:17:30;15.60;;;8.00;;
26435;SDS011;15351;52.408;16.826;2023-10-13T17:20:11;17.20;;;7.80;;
26435;SDS011;15351;52.408;16.826;2023-10-13T17:22:42;14.60;;;7.10;;
26435;SDS011;15351;52.408;16.826;2023-10-13T17:25:12;12.00;;;7.00;;
26435;SDS011;15351;52.408;16.826;2023-10-13T17:27:58;12.80;;;7.10;;
26435;SDS011;15351;52.408;16.826;2023-10-13T17:30:43;13.40;;;7.20;;
26435;SDS011;15351;52.408;16.826;2023-10-13T17:33:19;13.40;;;7.40;;
26435;SDS011;15351;52.408;16.826;2023-10-13T17:36:10;15.40;;;7.10;;
26435;SDS011;15351;52.408;16.826;2023-10-13T17:38:39;14.20;;;6.80;;
26435;SDS011;15351;52.408;16.826;2023-10-13T17:43:57;12.90;;;7.70;;
26435;SDS011;15351;52.408;16.826;2023-10-13T17:46:39;15.80;;;7.80;;
26435;SDS011;15351;52.408;16.826;2023-10-13T17:49:41;13.10;;;7.30;;
26435;SDS011;15351;52.408;16.826;2023-10-13T17:52:13;13.70;;;7.40;;
26435;SDS011;15351;52.408;16.826;2023-10-13T17:54:47;10.50;;;7.20;;
26435;SDS011;15351;52.408;16.826;2023-10-13T17:57:31;11.40;;;6.40;;
26435;SDS011;15351;52.408;16.826;2023-10-13T18:00:28;14.00;;;8.00;;
26435;SDS011;15351;52.408;16.826;2023-10-13T18:03:14;14.50;;;7.10;;
26435;SDS011;15351;52.408;16.826;2023-10-13T18:05:41;11.10;;;7.00;;
26435;SDS011;15351;52.408;16.826;2023-10-13T18:08:18;13.80;;;7.20;;
26435;SDS011;15351;52.408;16.826;2023-10-13T18:11:13;12.90;;;7.50;;
26435;SDS011;15351;52.408;16.826;2023-10-13T18:13:40;12.60;;;7.50;;
26435;SDS011;15351;52.408;16.826;2023-10-13T18:16:12;13.60;;;7.30;;
26435;SDS011;15351;52.408;16.826;2023-10-13T18:18:41;14.70;;;6.80;;
26435;SDS011;15351;52.408;16.826;2023-10-13T18:21:11;15.10;;;7.00;;
26435;SDS011;15351;52.408;16.826;2023-10-13T18:23:41;15.20;;;6.80;;
26435;SDS011;15351;52.408;16.826;2023-10-13T18:26:09;11.30;;;6.40;;
26435;SDS011;15351;52.408;16.826;2023-10-13T18:28:53;13.60;;;7.00;;
26435;SDS011;15351;52.408;16.826;2023-10-13T18:31:21;12.90;;;7.20;;
26435;SDS011;15351;52.408;16.826;2023-10-13T18:33:47;13.00;;;7.10;;
26435;SDS011;15351;52.408;16.826;2023-10-13T18:36:19;14.80;;;7.40;;
26435;SDS011;15351;52.408;16.826;2023-10-13T18:38:50;13.20;;;7.40;;
26435;SDS011;15351;52.408;16.826;2023-10-13T18:41:17;11.70;;;6.90;;